createdAt,value
2022-10-06T00:00:16.584Z,15.20
2022-10-06T00:02:47.172Z,15.19
2022-10-06T00:05:16.191Z,15.21
2022-10-06T00:07:45.351Z,15.21
2022-10-06T00:10:14.545Z,15.13
2022-10-06T00:12:44.458Z,15.16
2022-10-06T00:15:16.111Z,15.12
2022-10-06T00:17:46.600Z,15.14
2022-10-06T00:20:15.951Z,15.13
2022-10-06T00:22:47.519Z,15.07
2022-10-06T00:25:20.400Z,14.99
2022-10-06T00:27:51.865Z,14.96
2022-10-06T00:30:23.171Z,14.89
2022-10-06T00:32:56.033Z,14.95
2022-10-06T00:35:26.390Z,14.89
2022-10-06T00:37:55.947Z,14.85
2022-10-06T00:40:24.965Z,14.85
2022-10-06T00:42:56.868Z,14.81
2022-10-06T00:45:32.759Z,14.78
2022-10-06T00:48:08.402Z,14.76
2022-10-06T00:50:37.829Z,14.72
2022-10-06T00:53:07.281Z,14.66
2022-10-06T00:55:36.341Z,14.64
2022-10-06T00:58:07.350Z,14.65
2022-10-06T01:00:36.668Z,14.63
2022-10-06T01:03:11.810Z,14.62
2022-10-06T01:05:46.561Z,14.57
2022-10-06T01:08:16.163Z,14.55
2022-10-06T01:10:45.327Z,14.48
2022-10-06T01:13:15.343Z,14.46
2022-10-06T01:15:50.909Z,14.39
2022-10-06T01:18:27.101Z,14.40
2022-10-06T01:21:03.215Z,14.30
2022-10-06T01:23:36.020Z,14.20
2022-10-06T01:26:09.362Z,14.16
2022-10-06T01:28:39.130Z,14.12
2022-10-06T01:31:10.160Z,14.07
2022-10-06T01:33:39.209Z,14.09
2022-10-06T01:36:08.706Z,13.96
2022-10-06T01:38:39.103Z,14.00
2022-10-06T01:41:08.140Z,13.92
2022-10-06T01:43:37.869Z,13.89
2022-10-06T01:46:07.912Z,13.80
2022-10-06T01:48:38.081Z,13.71
2022-10-06T01:51:09.158Z,13.68
2022-10-06T01:53:40.303Z,13.61
2022-10-06T01:56:09.312Z,13.58
2022-10-06T01:58:38.294Z,13.54
2022-10-06T02:01:09.678Z,13.55
2022-10-06T02:03:40.433Z,13.56
2022-10-06T02:06:11.721Z,13.49
2022-10-06T02:08:42.125Z,13.47
2022-10-06T02:11:12.437Z,13.56
2022-10-06T02:13:45.132Z,13.47
2022-10-06T02:16:14.755Z,13.45
2022-10-06T02:18:45.599Z,13.30
2022-10-06T02:21:19.991Z,13.37
2022-10-06T02:23:50.567Z,13.48
2022-10-06T02:26:19.992Z,13.52
2022-10-06T02:28:50.783Z,13.54
2022-10-06T02:31:23.819Z,13.48
2022-10-06T02:33:54.465Z,13.59
2022-10-06T02:36:24.602Z,13.65
2022-10-06T02:38:55.066Z,13.73
2022-10-06T02:41:24.055Z,13.60
2022-10-06T02:43:53.619Z,13.64
2022-10-06T02:46:23.947Z,13.66
2022-10-06T02:48:54.536Z,13.67
2022-10-06T02:51:25.277Z,13.61
2022-10-06T02:53:56.257Z,13.56
2022-10-06T02:56:26.526Z,13.61
2022-10-06T02:58:55.633Z,13.64
2022-10-06T03:01:31.017Z,13.63
2022-10-06T03:04:03.221Z,13.51
2022-10-06T03:06:32.749Z,13.40
2022-10-06T03:09:29.187Z,13.27
2022-10-06T03:11:58.980Z,13.38
2022-10-06T03:14:40.744Z,13.33
2022-10-06T03:17:10.761Z,13.23
2022-10-06T03:19:46.118Z,13.20
2022-10-06T03:22:16.123Z,13.10
2022-10-06T03:24:52.883Z,13.12
2022-10-06T03:27:23.581Z,13.19
2022-10-06T03:29:55.669Z,13.17
2022-10-06T03:32:26.707Z,13.21
2022-10-06T03:34:55.655Z,13.16
2022-10-06T03:37:24.801Z,13.12
2022-10-06T03:39:55.123Z,12.94
2022-10-06T03:42:24.183Z,12.99
2022-10-06T03:44:54.364Z,12.92
2022-10-06T03:47:23.313Z,12.94
2022-10-06T03:49:52.292Z,12.81
2022-10-06T03:52:25.731Z,12.95
2022-10-06T03:54:56.654Z,12.77
2022-10-06T03:57:25.639Z,12.75
2022-10-06T03:59:59.148Z,12.79
2022-10-06T04:02:28.162Z,12.68
2022-10-06T04:04:57.234Z,12.77
2022-10-06T04:07:26.531Z,12.73
2022-10-06T04:09:57.038Z,12.72
2022-10-06T04:12:26.038Z,12.68
2022-10-06T04:14:59.860Z,12.60
2022-10-06T04:17:29.507Z,12.63
2022-10-06T04:19:58.513Z,12.61
2022-10-06T04:22:27.682Z,12.50
2022-10-06T04:24:58.035Z,12.49
2022-10-06T04:27:29.757Z,12.50
2022-10-06T04:30:04.007Z,12.42
2022-10-06T04:32:33.748Z,12.39
2022-10-06T04:35:03.017Z,12.42
2022-10-06T04:37:32.163Z,12.35
2022-10-06T04:40:03.140Z,12.30
2022-10-06T04:42:35.216Z,12.39
2022-10-06T04:45:07.614Z,12.36
2022-10-06T04:47:37.982Z,12.31
2022-10-06T04:50:07.775Z,12.31
2022-10-06T04:52:36.848Z,12.21
2022-10-06T04:55:08.317Z,12.15
2022-10-06T04:57:37.504Z,12.09
2022-10-06T05:00:26.755Z,12.21
2022-10-06T05:02:56.876Z,12.20
2022-10-06T05:05:25.896Z,12.22
2022-10-06T05:07:56.781Z,12.16
2022-10-06T05:10:28.453Z,12.07
2022-10-06T05:12:57.722Z,11.97
2022-10-06T05:15:28.082Z,12.01
2022-10-06T05:17:57.198Z,11.95
2022-10-06T05:20:26.226Z,12.02
2022-10-06T05:22:55.682Z,12.04
2022-10-06T05:25:26.197Z,11.99
2022-10-06T05:27:55.532Z,12.04
2022-10-06T05:30:24.601Z,11.99
2022-10-06T05:32:53.640Z,11.89
2022-10-06T05:35:22.738Z,11.86
2022-10-06T05:37:51.730Z,11.95
2022-10-06T05:40:20.737Z,11.82
2022-10-06T05:42:51.298Z,11.84
2022-10-06T05:45:20.291Z,11.97
2022-10-06T05:47:49.248Z,11.96
2022-10-06T05:50:20.627Z,11.89
2022-10-06T05:52:49.923Z,11.92
2022-10-06T05:55:18.875Z,11.90
2022-10-06T05:57:48.156Z,11.99
2022-10-06T06:00:18.572Z,11.95
2022-10-06T06:02:48.614Z,11.95
2022-10-06T06:05:17.720Z,11.93
2022-10-06T06:07:46.916Z,11.93
2022-10-06T06:10:15.933Z,12.00
2022-10-06T06:12:47.663Z,12.05
2022-10-06T06:15:57.518Z,12.05
2022-10-06T06:18:26.986Z,12.13
2022-10-06T06:20:59.797Z,12.13
2022-10-06T06:23:34.476Z,12.19
2022-10-06T06:26:05.065Z,12.26
2022-10-06T06:28:37.052Z,12.29
2022-10-06T06:31:09.429Z,12.23
2022-10-06T06:33:39.791Z,12.31
2022-10-06T06:36:14.873Z,12.27
2022-10-06T06:38:47.073Z,12.30
2022-10-06T06:41:17.957Z,12.33
2022-10-06T06:43:48.026Z,12.28
2022-10-06T06:46:32.433Z,12.34
2022-10-06T06:49:06.570Z,12.29
2022-10-06T06:51:49.790Z,12.39
2022-10-06T06:54:21.157Z,12.50
2022-10-06T06:56:55.217Z,12.53
2022-10-06T06:59:25.266Z,12.57
2022-10-06T07:01:58.165Z,12.59
2022-10-06T07:04:29.140Z,12.63
2022-10-06T07:06:58.447Z,12.61
2022-10-06T07:09:31.086Z,12.62
2022-10-06T07:12:06.461Z,12.68
2022-10-06T07:14:35.414Z,12.71
2022-10-06T07:17:23.853Z,12.72
2022-10-06T07:20:10.375Z,12.73
2022-10-06T07:22:56.811Z,12.73
2022-10-06T07:25:27.715Z,12.82
2022-10-06T07:27:59.626Z,12.88
2022-10-06T07:30:34.149Z,12.86
2022-10-06T07:33:10.686Z,12.90
2022-10-06T07:35:41.307Z,12.97
2022-10-06T07:38:10.282Z,12.96
2022-10-06T07:40:50.559Z,13.05
2022-10-06T07:43:32.491Z,13.02
2022-10-06T07:46:02.435Z,13.08
2022-10-06T07:48:36.995Z,13.14
2022-10-06T07:51:13.187Z,13.19
2022-10-06T07:53:44.693Z,13.14
2022-10-06T07:56:22.531Z,13.26
2022-10-06T07:58:55.895Z,13.23
2022-10-06T08:01:26.759Z,13.31
2022-10-06T08:03:57.693Z,13.23
2022-10-06T08:06:26.684Z,13.31
2022-10-06T08:08:56.528Z,13.36
2022-10-06T08:11:25.593Z,13.49
2022-10-06T08:13:54.517Z,13.56
2022-10-06T08:16:25.765Z,13.57
2022-10-06T08:18:57.726Z,13.64
2022-10-06T08:21:29.608Z,13.66
2022-10-06T08:23:59.956Z,13.53
2022-10-06T08:26:30.935Z,13.61
2022-10-06T08:29:02.116Z,13.64
2022-10-06T08:31:32.481Z,13.56
2022-10-06T08:34:02.908Z,13.78
2022-10-06T08:36:32.790Z,13.89
2022-10-06T08:39:01.947Z,14.05
2022-10-06T08:41:40.452Z,13.85
2022-10-06T08:44:20.348Z,14.15
2022-10-06T08:46:55.084Z,14.40
2022-10-06T08:49:28.299Z,14.50
2022-10-06T08:52:07.609Z,14.73
2022-10-06T08:54:42.273Z,14.92
2022-10-06T08:57:20.217Z,15.12
2022-10-06T08:59:53.336Z,14.96
2022-10-06T09:02:29.240Z,14.88
2022-10-06T09:05:02.365Z,15.31
2022-10-06T09:07:42.320Z,15.46
2022-10-06T09:10:29.614Z,15.41
2022-10-06T09:13:04.775Z,15.08
2022-10-06T09:15:40.923Z,14.97
2022-10-06T09:18:17.019Z,15.66
2022-10-06T09:20:53.003Z,15.22
2022-10-06T09:23:42.592Z,15.16
2022-10-06T09:26:14.031Z,15.87
2022-10-06T09:28:46.425Z,16.03
2022-10-06T09:31:22.342Z,16.05
2022-10-06T09:33:54.751Z,15.96
2022-10-06T09:36:25.090Z,15.65
2022-10-06T09:38:55.495Z,15.16
2022-10-06T09:41:27.926Z,15.44
2022-10-06T09:43:59.682Z,15.83
2022-10-06T09:46:32.646Z,15.94
2022-10-06T09:49:16.670Z,16.07
2022-10-06T09:52:10.288Z,16.03
2022-10-06T09:54:41.839Z,15.93
2022-10-06T09:57:16.017Z,15.77
2022-10-06T09:59:47.667Z,16.01
2022-10-06T10:02:31.436Z,15.67
2022-10-06T10:05:00.547Z,15.83
2022-10-06T10:07:33.072Z,16.45
2022-10-06T10:10:21.858Z,16.49
2022-10-06T10:12:52.119Z,16.31
2022-10-06T10:15:31.429Z,16.41
2022-10-06T10:18:04.045Z,15.53
2022-10-06T10:20:36.523Z,16.30
2022-10-06T10:23:28.662Z,15.71
2022-10-06T10:26:14.210Z,16.82
2022-10-06T10:29:04.694Z,17.36
2022-10-06T10:31:48.147Z,16.35
2022-10-06T10:34:38.138Z,16.46
2022-10-06T10:37:13.237Z,16.19
2022-10-06T10:39:49.549Z,16.73
2022-10-06T10:42:23.082Z,16.41
2022-10-06T10:44:58.255Z,16.11
2022-10-06T10:47:32.275Z,16.47
2022-10-06T10:50:07.989Z,16.38
2022-10-06T10:52:42.366Z,16.49
2022-10-06T10:55:23.214Z,16.94
2022-10-06T10:57:54.033Z,16.21
2022-10-06T11:00:28.081Z,15.98
2022-10-06T11:02:59.844Z,16.94
2022-10-06T11:05:40.073Z,16.24
2022-10-06T11:08:14.897Z,16.72
2022-10-06T11:10:50.781Z,16.84
2022-10-06T11:13:27.823Z,17.39
2022-10-06T11:16:12.344Z,17.43
2022-10-06T11:18:55.646Z,16.20
2022-10-06T11:21:28.229Z,16.82
2022-10-06T11:24:02.131Z,15.97
2022-10-06T11:26:49.030Z,16.90
2022-10-06T11:29:28.171Z,16.17
2022-10-06T11:32:05.511Z,15.55
2022-10-06T11:34:34.607Z,15.56
2022-10-06T11:37:13.040Z,16.03
2022-10-06T11:39:50.938Z,15.31
2022-10-06T11:45:05.976Z,15.43
2022-10-06T11:47:44.540Z,16.39
2022-10-06T11:50:35.173Z,16.62
2022-10-06T11:53:05.626Z,16.34
2022-10-06T11:55:34.880Z,15.46
2022-10-06T12:01:05.480Z,15.75
2022-10-06T12:04:13.404Z,15.81
2022-10-06T12:07:10.780Z,15.52
2022-10-06T12:09:51.706Z,15.41
2022-10-06T12:12:47.710Z,15.38
2022-10-06T12:19:03.398Z,15.33
2022-10-06T12:21:43.172Z,15.35
2022-10-06T12:24:41.276Z,15.12
2022-10-06T12:27:32.175Z,15.34
2022-10-06T12:30:06.447Z,14.92
2022-10-06T12:32:50.294Z,15.18
2022-10-06T12:35:34.792Z,15.22
2022-10-06T12:38:06.033Z,14.95
2022-10-06T12:40:55.186Z,15.26
2022-10-06T12:43:58.425Z,15.01
2022-10-06T12:46:49.274Z,15.19
2022-10-06T12:49:44.083Z,15.06
2022-10-06T12:52:48.006Z,15.07
2022-10-06T12:55:42.353Z,15.09
2022-10-06T12:58:19.573Z,15.08
2022-10-06T13:00:49.256Z,16.72
2022-10-06T13:03:20.541Z,17.28
2022-10-06T13:05:57.033Z,17.97
2022-10-06T13:08:28.329Z,17.69
2022-10-06T13:11:14.449Z,17.93
2022-10-06T13:13:48.763Z,17.75
2022-10-06T13:16:20.459Z,18.07
2022-10-06T13:18:49.975Z,18.50
2022-10-06T13:21:20.246Z,18.16
2022-10-06T13:23:49.893Z,17.02
2022-10-06T13:26:23.283Z,17.16
2022-10-06T13:28:53.562Z,17.57
2022-10-06T13:31:26.670Z,17.99
2022-10-06T13:33:59.555Z,18.19
2022-10-06T13:36:32.202Z,17.21
2022-10-06T13:39:03.840Z,17.71
2022-10-06T13:41:36.026Z,17.20
2022-10-06T13:44:19.736Z,17.51
2022-10-06T13:46:52.461Z,17.73
2022-10-06T13:49:26.089Z,17.79
2022-10-06T13:51:59.715Z,18.14
2022-10-06T13:54:34.881Z,18.32
2022-10-06T13:57:03.954Z,17.92
2022-10-06T13:59:38.300Z,18.41
2022-10-06T14:02:24.590Z,17.99
2022-10-06T14:05:32.650Z,17.68
2022-10-06T14:08:15.315Z,17.26
2022-10-06T14:10:49.573Z,17.90
2022-10-06T14:13:21.739Z,17.64
2022-10-06T14:15:53.000Z,17.62
2022-10-06T14:18:29.055Z,17.38
2022-10-06T14:20:58.629Z,17.39
2022-10-06T14:23:45.129Z,17.32
2022-10-06T14:26:15.640Z,17.66
2022-10-06T14:28:48.378Z,17.03
2022-10-06T14:31:17.687Z,16.92
2022-10-06T14:33:48.552Z,17.24
2022-10-06T14:36:20.558Z,17.55
2022-10-06T14:38:52.816Z,17.61
2022-10-06T14:41:24.876Z,17.73
2022-10-06T14:43:54.670Z,17.63
2022-10-06T14:46:25.080Z,17.53
2022-10-06T14:48:54.427Z,17.16
2022-10-06T14:51:25.896Z,17.32
2022-10-06T14:53:57.866Z,17.29
2022-10-06T14:56:31.650Z,17.17
2022-10-06T14:59:02.249Z,16.24
2022-10-06T15:01:32.012Z,15.94
2022-10-06T15:04:04.986Z,15.73
2022-10-06T15:06:51.709Z,15.53
2022-10-06T15:09:22.252Z,15.67
2022-10-06T15:11:51.908Z,15.62
2022-10-06T15:14:22.367Z,15.67
2022-10-06T15:16:51.965Z,15.61
2022-10-06T15:19:22.103Z,15.59
2022-10-06T15:21:51.071Z,15.54
2022-10-06T15:24:22.114Z,15.42
2022-10-06T15:27:08.832Z,15.45
2022-10-06T15:29:37.813Z,15.42
2022-10-06T15:32:07.188Z,15.30
2022-10-06T15:34:37.574Z,15.33
2022-10-06T15:37:06.998Z,15.28
2022-10-06T15:39:38.532Z,15.26
2022-10-06T15:42:08.588Z,15.21
2022-10-06T15:44:37.902Z,15.11
2022-10-06T15:47:07.919Z,15.11
2022-10-06T15:49:40.371Z,15.05
2022-10-06T15:52:12.113Z,15.12
2022-10-06T15:54:43.708Z,15.01
2022-10-06T15:57:19.496Z,15.01
2022-10-06T15:59:49.624Z,14.99
2022-10-06T16:02:20.373Z,14.88
2022-10-06T16:05:17.306Z,14.78
2022-10-06T16:07:46.219Z,14.76
2022-10-06T16:10:16.628Z,14.72
2022-10-06T16:12:45.980Z,14.63
2022-10-06T16:15:14.950Z,14.55
2022-10-06T16:17:43.886Z,14.49
2022-10-06T16:20:12.793Z,14.49
2022-10-06T16:22:42.243Z,14.30
2022-10-06T16:25:11.489Z,14.24
2022-10-06T16:27:41.805Z,14.31
2022-10-06T16:30:12.234Z,14.22
2022-10-06T16:32:41.489Z,14.20
2022-10-06T16:35:14.772Z,13.96
2022-10-06T16:37:49.759Z,13.85
2022-10-06T16:40:18.933Z,13.71
2022-10-06T16:42:49.356Z,13.59
2022-10-06T16:45:18.357Z,13.44
2022-10-06T16:47:47.267Z,13.44
2022-10-06T16:50:16.386Z,13.30
2022-10-06T16:52:45.330Z,13.20
2022-10-06T16:55:14.428Z,13.43
2022-10-06T16:57:43.417Z,13.31
2022-10-06T17:00:16.164Z,13.05
2022-10-06T17:02:45.113Z,13.00
2022-10-06T17:05:14.144Z,13.04
2022-10-06T17:07:43.078Z,12.92
2022-10-06T17:10:20.857Z,12.89
2022-10-06T17:12:50.216Z,12.88
2022-10-06T17:15:20.479Z,12.84
2022-10-06T17:17:49.397Z,12.86
2022-10-06T17:20:18.305Z,13.03
2022-10-06T17:22:47.337Z,12.79
2022-10-06T17:25:16.489Z,12.86
2022-10-06T17:27:45.425Z,12.64
2022-10-06T17:30:15.352Z,12.53
2022-10-06T17:32:46.976Z,12.57
2022-10-06T17:35:15.987Z,12.42
2022-10-06T17:37:45.440Z,12.40
2022-10-06T17:40:14.410Z,12.41
2022-10-06T17:42:43.705Z,12.58
2022-10-06T17:45:12.862Z,12.48
2022-10-06T17:47:42.082Z,12.55
2022-10-06T17:50:12.441Z,12.43
2022-10-06T17:52:41.826Z,12.37
2022-10-06T17:55:14.882Z,12.55
2022-10-06T17:57:43.806Z,12.41
2022-10-06T18:00:15.214Z,12.30
2022-10-06T18:02:44.739Z,12.19
2022-10-06T18:05:15.986Z,12.14
2022-10-06T18:07:45.579Z,12.09
2022-10-06T18:10:36.274Z,11.98
2022-10-06T18:13:06.084Z,11.96
2022-10-06T18:15:37.179Z,11.87
2022-10-06T18:18:06.495Z,11.80
2022-10-06T18:20:40.131Z,11.79
2022-10-06T18:23:09.515Z,11.72
2022-10-06T18:25:38.422Z,11.68
2022-10-06T18:28:07.378Z,11.62
2022-10-06T18:30:36.582Z,11.57
2022-10-06T18:36:15.256Z,11.49
2022-10-06T18:38:46.924Z,11.45
2022-10-06T18:41:18.960Z,11.38
2022-10-06T18:43:48.076Z,11.29
2022-10-06T18:46:36.059Z,11.34
2022-10-06T18:49:10.535Z,11.40
2022-10-06T18:51:44.110Z,11.33
2022-10-06T18:54:17.820Z,11.28
2022-10-06T18:56:51.732Z,11.19
2022-10-06T18:59:23.335Z,11.12
2022-10-06T19:01:52.948Z,11.14
2022-10-06T19:04:23.764Z,11.23
2022-10-06T19:06:56.497Z,11.28
2022-10-06T19:09:26.394Z,11.16
2022-10-06T19:11:59.958Z,11.28
2022-10-06T19:14:31.561Z,11.30
2022-10-06T19:17:03.261Z,11.21
2022-10-06T19:19:32.898Z,11.27
2022-10-06T19:22:05.154Z,11.32
2022-10-06T19:24:36.982Z,11.33
2022-10-06T19:27:11.552Z,11.25
2022-10-06T19:29:45.335Z,11.33
2022-10-06T19:32:18.760Z,11.27
2022-10-06T19:34:48.432Z,11.14
2022-10-06T19:37:19.270Z,11.07
2022-10-06T19:39:50.747Z,11.06
2022-10-06T19:42:38.505Z,11.07
2022-10-06T19:45:09.570Z,11.15
2022-10-06T19:47:38.634Z,11.18
2022-10-06T19:50:12.076Z,11.08
2022-10-06T19:52:43.538Z,11.06
2022-10-06T19:55:12.537Z,11.06
2022-10-06T19:57:43.217Z,11.07
2022-10-06T20:00:13.565Z,11.00
2022-10-06T20:02:43.992Z,10.96
2022-10-06T20:05:15.074Z,10.92
2022-10-06T20:07:47.495Z,10.90
2022-10-06T20:10:16.922Z,10.83
2022-10-06T20:12:46.296Z,10.86
2022-10-06T20:15:15.319Z,10.90
2022-10-06T20:17:45.522Z,10.86
2022-10-06T20:20:15.194Z,10.81
2022-10-06T20:22:45.798Z,10.82
2022-10-06T20:25:14.913Z,10.84
2022-10-06T20:27:44.913Z,10.90
2022-10-06T20:30:14.546Z,10.80
2022-10-06T20:32:43.526Z,10.74
2022-10-06T20:35:14.934Z,10.68
2022-10-06T20:37:45.757Z,10.59
2022-10-06T20:40:32.734Z,10.55
2022-10-06T20:43:01.826Z,10.43
2022-10-06T20:45:30.872Z,10.42
2022-10-06T20:48:00.187Z,10.47
2022-10-06T20:50:31.208Z,10.50
2022-10-06T20:53:01.556Z,10.45
2022-10-06T20:55:30.548Z,10.30
2022-10-06T20:57:59.567Z,10.22
2022-10-06T21:00:28.534Z,10.30
2022-10-06T21:02:57.641Z,10.20
2022-10-06T21:05:26.643Z,10.14
2022-10-06T21:07:55.643Z,10.07
2022-10-06T21:10:25.944Z,9.94
2022-10-06T21:12:55.804Z,10.03
2022-10-06T21:15:24.983Z,10.04
2022-10-06T21:17:53.969Z,10.03
2022-10-06T21:20:23.020Z,9.93
2022-10-06T21:22:52.657Z,9.89
2022-10-06T21:25:21.607Z,9.85
2022-10-06T21:27:51.939Z,9.77
2022-10-06T21:30:20.908Z,9.67
2022-10-06T21:32:49.917Z,9.54
2022-10-06T21:35:18.881Z,9.66
2022-10-06T21:37:47.855Z,9.57
2022-10-06T21:40:16.929Z,9.64
2022-10-06T21:42:45.934Z,9.66
2022-10-06T21:45:16.406Z,9.72
2022-10-06T21:47:46.303Z,9.60
2022-10-06T21:50:15.735Z,9.65
2022-10-06T21:52:44.681Z,9.77
2022-10-06T21:55:13.727Z,9.85
2022-10-06T21:57:42.976Z,9.84
2022-10-06T22:00:13.666Z,9.85
2022-10-06T22:02:44.095Z,9.84
2022-10-06T22:05:13.130Z,9.75
2022-10-06T22:07:42.487Z,9.74
2022-10-06T22:10:11.666Z,9.67
2022-10-06T22:12:40.623Z,9.67
2022-10-06T22:15:10.135Z,9.70
2022-10-06T22:17:39.100Z,9.79
2022-10-06T22:20:10.683Z,9.86
2022-10-06T22:22:39.677Z,9.82
2022-10-06T22:25:09.016Z,9.89
2022-10-06T22:27:37.991Z,9.77
2022-10-06T22:30:08.200Z,9.84
2022-10-06T22:32:37.164Z,9.84
2022-10-06T22:35:07.172Z,9.79
2022-10-06T22:37:37.477Z,9.86
2022-10-06T22:40:07.880Z,9.86
2022-10-06T22:42:36.910Z,9.74
2022-10-06T22:45:07.004Z,9.83
2022-10-06T22:47:35.987Z,9.82
2022-10-06T22:50:05.742Z,9.90
2022-10-06T22:52:36.080Z,9.84
2022-10-06T22:55:05.511Z,9.86
2022-10-06T22:57:34.584Z,9.76
2022-10-06T23:00:03.606Z,9.73
2022-10-06T23:02:33.343Z,9.71
2022-10-06T23:05:02.355Z,9.73
2022-10-06T23:07:31.288Z,9.65
2022-10-06T23:10:01.634Z,9.55
2022-10-06T23:12:30.630Z,9.65
2022-10-06T23:14:59.582Z,9.53
2022-10-06T23:17:28.533Z,9.48
2022-10-06T23:19:57.535Z,9.50
2022-10-06T23:22:26.477Z,9.46
2022-10-06T23:24:55.405Z,9.48
2022-10-06T23:27:25.771Z,9.39
2022-10-06T23:29:54.851Z,9.32
2022-10-06T23:32:24.339Z,9.30
2022-10-06T23:34:53.303Z,9.32
2022-10-06T23:37:22.420Z,9.24
2022-10-06T23:39:51.370Z,9.12
2022-10-06T23:42:20.375Z,9.08
2022-10-06T23:44:50.673Z,9.09
2022-10-06T23:47:19.644Z,9.10
2022-10-06T23:49:48.639Z,9.06
2022-10-06T23:52:17.647Z,9.12
2022-10-06T23:54:46.706Z,8.99
2022-10-06T23:57:15.651Z,9.06
2022-10-06T23:59:44.614Z,9.07
